sensor_id;sensor_type;location;lat;lon;timestamp;temperature;humidity
29093;DHT22;16167;48.768;14.984;2022-08-20T00:01:45;18.50;1.00
29093;DHT22;16167;48.768;14.984;2022-08-20T00:04:15;18.40;1.00
29093;DHT22;16167;48.768;14.984;2022-08-20T00:06:44;18.40;1.00
29093;DHT22;16167;48.768;14.984;2022-08-20T00:09:12;18.40;1.00
29093;DHT22;16167;48.768;14.984;2022-08-20T00:11:40;18.40;1.00
29093;DHT22;16167;48.768;14.984;2022-08-20T00:14:11;18.40;1.00
29093;DHT22;16167;48.768;14.984;2022-08-20T00:16:40;18.40;1.00
29093;DHT22;16167;48.768;14.984;2022-08-20T00:19:10;18.40;1.00
29093;DHT22;16167;48.768;14.984;2022-08-20T00:21:38;18.40;1.00
29093;DHT22;16167;48.768;14.984;2022-08-20T00:24:07;18.40;1.00
29093;DHT22;16167;48.768;14.984;2022-08-20T00:26:36;18.40;1.00
29093;DHT22;16167;48.768;14.984;2022-08-20T00:29:18;18.40;1.00
29093;DHT22;16167;48.768;14.984;2022-08-20T00:31:50;18.40;1.00
29093;DHT22;16167;48.768;14.984;2022-08-20T00:34:18;18.40;1.00
29093;DHT22;16167;48.768;14.984;2022-08-20T00:36:46;18.40;1.00
29093;DHT22;16167;48.768;14.984;2022-08-20T00:39:14;18.50;1.00
29093;DHT22;16167;48.768;14.984;2022-08-20T00:41:42;18.50;1.00
29093;DHT22;16167;48.768;14.984;2022-08-20T00:44:14;18.50;1.00
29093;DHT22;16167;48.768;14.984;2022-08-20T00:46:43;18.50;1.00
29093;DHT22;16167;48.768;14.984;2022-08-20T00:49:17;18.50;1.00
29093;DHT22;16167;48.768;14.984;2022-08-20T00:51:51;18.50;1.00
29093;DHT22;16167;48.768;14.984;2022-08-20T00:54:23;18.50;1.00
29093;DHT22;16167;48.768;14.984;2022-08-20T00:56:56;18.50;1.00
29093;DHT22;16167;48.768;14.984;2022-08-20T00:59:27;18.40;1.00
29093;DHT22;16167;48.768;14.984;2022-08-20T01:01:57;18.40;1.00
29093;DHT22;16167;48.768;14.984;2022-08-20T01:04:30;18.40;1.00
29093;DHT22;16167;48.768;14.984;2022-08-20T01:07:01;18.40;1.00
29093;DHT22;16167;48.768;14.984;2022-08-20T01:09:32;18.50;1.00
29093;DHT22;16167;48.768;14.984;2022-08-20T01:12:21;18.50;1.00
29093;DHT22;16167;48.768;14.984;2022-08-20T01:14:50;18.60;1.00
29093;DHT22;16167;48.768;14.984;2022-08-20T01:17:22;18.50;1.00
29093;DHT22;16167;48.768;14.984;2022-08-20T01:19:54;18.50;1.00
29093;DHT22;16167;48.768;14.984;2022-08-20T01:22:29;18.50;1.00
29093;DHT22;16167;48.768;14.984;2022-08-20T01:25:22;18.40;1.00
29093;DHT22;16167;48.768;14.984;2022-08-20T01:27:54;18.40;1.00
29093;DHT22;16167;48.768;14.984;2022-08-20T01:30:26;18.30;1.00
29093;DHT22;16167;48.768;14.984;2022-08-20T01:32:56;18.30;1.00
29093;DHT22;16167;48.768;14.984;2022-08-20T01:35:25;18.30;1.00
29093;DHT22;16167;48.768;14.984;2022-08-20T01:37:53;18.30;1.00
29093;DHT22;16167;48.768;14.984;2022-08-20T01:40:34;18.30;1.00
29093;DHT22;16167;48.768;14.984;2022-08-20T01:43:06;18.20;1.00
29093;DHT22;16167;48.768;14.984;2022-08-20T01:45:36;18.20;1.00
29093;DHT22;16167;48.768;14.984;2022-08-20T01:48:06;18.20;1.00
29093;DHT22;16167;48.768;14.984;2022-08-20T01:50:35;18.20;1.00
29093;DHT22;16167;48.768;14.984;2022-08-20T01:53:12;18.30;1.00
29093;DHT22;16167;48.768;14.984;2022-08-20T01:55:42;18.20;1.00
29093;DHT22;16167;48.768;14.984;2022-08-20T01:58:12;18.20;1.00
29093;DHT22;16167;48.768;14.984;2022-08-20T02:00:40;18.20;1.00
29093;DHT22;16167;48.768;14.984;2022-08-20T02:03:08;18.20;1.00
29093;DHT22;16167;48.768;14.984;2022-08-20T02:05:36;18.10;1.00
29093;DHT22;16167;48.768;14.984;2022-08-20T02:08:05;18.10;1.00
29093;DHT22;16167;48.768;14.984;2022-08-20T02:10:34;18.10;1.00
29093;DHT22;16167;48.768;14.984;2022-08-20T02:13:03;18.00;1.00
29093;DHT22;16167;48.768;14.984;2022-08-20T02:15:34;17.90;1.00
29093;DHT22;16167;48.768;14.984;2022-08-20T02:18:10;17.90;1.00
29093;DHT22;16167;48.768;14.984;2022-08-20T02:20:39;17.90;1.00
29093;DHT22;16167;48.768;14.984;2022-08-20T02:23:10;17.80;1.00
29093;DHT22;16167;48.768;14.984;2022-08-20T02:25:41;17.80;1.00
29093;DHT22;16167;48.768;14.984;2022-08-20T02:28:12;17.80;1.00
29093;DHT22;16167;48.768;14.984;2022-08-20T02:30:45;17.80;1.00
29093;DHT22;16167;48.768;14.984;2022-08-20T02:33:15;17.70;1.00
29093;DHT22;16167;48.768;14.984;2022-08-20T02:35:47;17.70;1.00
29093;DHT22;16167;48.768;14.984;2022-08-20T02:38:15;17.60;1.00
29093;DHT22;16167;48.768;14.984;2022-08-20T02:40:45;17.60;1.00
29093;DHT22;16167;48.768;14.984;2022-08-20T02:43:15;17.60;1.00
29093;DHT22;16167;48.768;14.984;2022-08-20T02:45:45;17.60;1.00
29093;DHT22;16167;48.768;14.984;2022-08-20T02:48:16;17.50;1.00
29093;DHT22;16167;48.768;14.984;2022-08-20T02:50:51;17.50;1.00
29093;DHT22;16167;48.768;14.984;2022-08-20T02:53:20;17.40;1.00
29093;DHT22;16167;48.768;14.984;2022-08-20T02:55:48;17.40;1.00
29093;DHT22;16167;48.768;14.984;2022-08-20T02:58:17;17.30;1.70
29093;DHT22;16167;48.768;14.984;2022-08-20T03:00:47;17.20;1.00
29093;DHT22;16167;48.768;14.984;2022-08-20T03:03:16;17.10;1.00
29093;DHT22;16167;48.768;14.984;2022-08-20T03:05:50;17.10;1.00
29093;DHT22;16167;48.768;14.984;2022-08-20T03:08:19;17.00;1.00
29093;DHT22;16167;48.768;14.984;2022-08-20T03:10:49;16.90;1.40
29093;DHT22;16167;48.768;14.984;2022-08-20T03:13:20;16.80;1.00
29093;DHT22;16167;48.768;14.984;2022-08-20T03:15:53;16.80;1.00
29093;DHT22;16167;48.768;14.984;2022-08-20T03:18:28;16.70;6.40
29093;DHT22;16167;48.768;14.984;2022-08-20T03:20:56;16.70;16.00
29093;DHT22;16167;48.768;14.984;2022-08-20T03:23:24;16.80;23.50
29093;DHT22;16167;48.768;14.984;2022-08-20T03:25:53;16.80;18.10
29093;DHT22;16167;48.768;14.984;2022-08-20T03:28:21;16.90;16.60
29093;DHT22;16167;48.768;14.984;2022-08-20T03:30:51;16.90;14.90
29093;DHT22;16167;48.768;14.984;2022-08-20T03:33:21;17.00;15.60
29093;DHT22;16167;48.768;14.984;2022-08-20T03:35:50;16.90;10.50
29093;DHT22;16167;48.768;14.984;2022-08-20T03:38:19;17.00;11.30
29093;DHT22;16167;48.768;14.984;2022-08-20T03:41:00;16.90;12.00
29093;DHT22;16167;48.768;14.984;2022-08-20T03:43:28;16.90;14.10
29093;DHT22;16167;48.768;14.984;2022-08-20T03:45:58;16.90;13.10
29093;DHT22;16167;48.768;14.984;2022-08-20T03:48:27;16.80;11.20
29093;DHT22;16167;48.768;14.984;2022-08-20T03:50:55;16.80;14.00
29093;DHT22;16167;48.768;14.984;2022-08-20T03:53:26;16.80;14.40
29093;DHT22;16167;48.768;14.984;2022-08-20T03:55:58;16.70;15.60
29093;DHT22;16167;48.768;14.984;2022-08-20T03:58:29;16.70;19.50
29093;DHT22;16167;48.768;14.984;2022-08-20T04:01:04;16.60;24.70
29093;DHT22;16167;48.768;14.984;2022-08-20T04:03:38;16.70;20.30
29093;DHT22;16167;48.768;14.984;2022-08-20T04:06:06;16.60;18.10
29093;DHT22;16167;48.768;14.984;2022-08-20T04:08:34;16.60;17.00
29093;DHT22;16167;48.768;14.984;2022-08-20T04:11:04;16.60;22.30
29093;DHT22;16167;48.768;14.984;2022-08-20T04:13:33;16.60;16.40
29093;DHT22;16167;48.768;14.984;2022-08-20T04:16:08;16.60;18.40
29093;DHT22;16167;48.768;14.984;2022-08-20T04:18:40;16.50;17.70
29093;DHT22;16167;48.768;14.984;2022-08-20T04:21:27;16.50;24.50
29093;DHT22;16167;48.768;14.984;2022-08-20T04:23:59;16.50;21.30
29093;DHT22;16167;48.768;14.984;2022-08-20T04:26:27;16.50;21.50
29093;DHT22;16167;48.768;14.984;2022-08-20T04:28:55;16.50;24.10
29093;DHT22;16167;48.768;14.984;2022-08-20T04:31:24;16.50;24.70
29093;DHT22;16167;48.768;14.984;2022-08-20T04:34:00;16.40;28.10
29093;DHT22;16167;48.768;14.984;2022-08-20T04:36:28;16.50;25.70
29093;DHT22;16167;48.768;14.984;2022-08-20T04:38:56;16.50;24.40
29093;DHT22;16167;48.768;14.984;2022-08-20T04:41:24;16.50;23.40
29093;DHT22;16167;48.768;14.984;2022-08-20T04:43:52;16.50;25.40
29093;DHT22;16167;48.768;14.984;2022-08-20T04:46:24;16.60;27.60
29093;DHT22;16167;48.768;14.984;2022-08-20T04:48:55;16.60;26.20
29093;DHT22;16167;48.768;14.984;2022-08-20T04:51:23;16.60;26.60
29093;DHT22;16167;48.768;14.984;2022-08-20T04:53:54;16.70;29.00
29093;DHT22;16167;48.768;14.984;2022-08-20T04:56:25;16.70;33.90
29093;DHT22;16167;48.768;14.984;2022-08-20T04:58:57;16.80;31.40
29093;DHT22;16167;48.768;14.984;2022-08-20T05:01:27;16.80;29.90
29093;DHT22;16167;48.768;14.984;2022-08-20T05:03:57;16.90;31.80
29093;DHT22;16167;48.768;14.984;2022-08-20T05:06:29;16.90;29.00
29093;DHT22;16167;48.768;14.984;2022-08-20T05:08:58;16.90;25.30
29093;DHT22;16167;48.768;14.984;2022-08-20T05:11:27;17.00;25.50
29093;DHT22;16167;48.768;14.984;2022-08-20T05:14:03;17.10;27.20
29093;DHT22;16167;48.768;14.984;2022-08-20T05:16:35;17.10;26.30
29093;DHT22;16167;48.768;14.984;2022-08-20T05:19:08;17.20;26.80
29093;DHT22;16167;48.768;14.984;2022-08-20T05:21:37;17.30;28.20
29093;DHT22;16167;48.768;14.984;2022-08-20T05:24:06;17.40;26.30
29093;DHT22;16167;48.768;14.984;2022-08-20T05:26:35;17.50;24.40
29093;DHT22;16167;48.768;14.984;2022-08-20T05:29:03;17.60;20.00
29093;DHT22;16167;48.768;14.984;2022-08-20T05:31:33;17.70;19.60
29093;DHT22;16167;48.768;14.984;2022-08-20T05:34:04;17.80;16.30
29093;DHT22;16167;48.768;14.984;2022-08-20T05:36:36;17.90;12.40
29093;DHT22;16167;48.768;14.984;2022-08-20T05:39:05;18.00;8.20
29093;DHT22;16167;48.768;14.984;2022-08-20T05:41:34;18.00;11.90
29093;DHT22;16167;48.768;14.984;2022-08-20T05:44:03;18.20;9.70
29093;DHT22;16167;48.768;14.984;2022-08-20T05:46:36;18.30;7.00
29093;DHT22;16167;48.768;14.984;2022-08-20T05:49:07;18.40;4.40
29093;DHT22;16167;48.768;14.984;2022-08-20T05:51:35;18.50;1.00
29093;DHT22;16167;48.768;14.984;2022-08-20T05:54:04;18.60;1.00
29093;DHT22;16167;48.768;14.984;2022-08-20T05:56:36;18.80;1.00
29093;DHT22;16167;48.768;14.984;2022-08-20T05:59:05;19.00;1.00
29093;DHT22;16167;48.768;14.984;2022-08-20T06:01:36;19.10;1.00
29093;DHT22;16167;48.768;14.984;2022-08-20T06:04:05;19.20;1.00
29093;DHT22;16167;48.768;14.984;2022-08-20T06:06:53;19.20;1.00
29093;DHT22;16167;48.768;14.984;2022-08-20T06:09:24;19.30;1.00
29093;DHT22;16167;48.768;14.984;2022-08-20T06:11:58;19.40;1.00
29093;DHT22;16167;48.768;14.984;2022-08-20T06:14:27;19.50;1.00
29093;DHT22;16167;48.768;14.984;2022-08-20T06:17:01;19.60;1.00
29093;DHT22;16167;48.768;14.984;2022-08-20T06:19:30;19.70;1.00
29093;DHT22;16167;48.768;14.984;2022-08-20T06:22:01;19.80;1.00
29093;DHT22;16167;48.768;14.984;2022-08-20T06:24:45;19.80;1.00
29093;DHT22;16167;48.768;14.984;2022-08-20T06:27:14;20.00;1.00
29093;DHT22;16167;48.768;14.984;2022-08-20T06:29:43;20.00;1.00
29093;DHT22;16167;48.768;14.984;2022-08-20T06:32:11;20.20;1.00
29093;DHT22;16167;48.768;14.984;2022-08-20T06:34:39;20.20;1.00
29093;DHT22;16167;48.768;14.984;2022-08-20T06:37:21;20.40;1.00
29093;DHT22;16167;48.768;14.984;2022-08-20T06:40:00;20.40;1.00
29093;DHT22;16167;48.768;14.984;2022-08-20T06:42:30;20.50;1.00
29093;DHT22;16167;48.768;14.984;2022-08-20T06:44:58;20.60;1.00
29093;DHT22;16167;48.768;14.984;2022-08-20T06:47:29;20.50;1.00
29093;DHT22;16167;48.768;14.984;2022-08-20T06:49:57;20.60;1.00
29093;DHT22;16167;48.768;14.984;2022-08-20T06:52:26;20.60;1.00
29093;DHT22;16167;48.768;14.984;2022-08-20T06:55:14;20.60;1.00
29093;DHT22;16167;48.768;14.984;2022-08-20T06:57:43;20.70;1.00
29093;DHT22;16167;48.768;14.984;2022-08-20T07:00:15;20.80;1.00
29093;DHT22;16167;48.768;14.984;2022-08-20T07:02:44;20.80;1.00
29093;DHT22;16167;48.768;14.984;2022-08-20T07:05:13;20.90;1.00
29093;DHT22;16167;48.768;14.984;2022-08-20T07:07:45;20.90;1.00
29093;DHT22;16167;48.768;14.984;2022-08-20T07:10:16;21.00;1.00
29093;DHT22;16167;48.768;14.984;2022-08-20T07:12:45;21.10;1.00
29093;DHT22;16167;48.768;14.984;2022-08-20T07:15:18;21.30;1.00
29093;DHT22;16167;48.768;14.984;2022-08-20T07:17:50;21.50;1.00
29093;DHT22;16167;48.768;14.984;2022-08-20T07:20:21;21.40;1.00
29093;DHT22;16167;48.768;14.984;2022-08-20T07:22:50;21.40;1.00
29093;DHT22;16167;48.768;14.984;2022-08-20T07:25:19;21.40;1.00
29093;DHT22;16167;48.768;14.984;2022-08-20T07:27:49;21.30;1.00
29093;DHT22;16167;48.768;14.984;2022-08-20T07:30:24;21.30;1.00
29093;DHT22;16167;48.768;14.984;2022-08-20T07:33:23;21.40;1.00
29093;DHT22;16167;48.768;14.984;2022-08-20T07:35:54;21.50;1.00
29093;DHT22;16167;48.768;14.984;2022-08-20T07:38:25;21.50;1.00
29093;DHT22;16167;48.768;14.984;2022-08-20T07:40:54;21.50;1.00
29093;DHT22;16167;48.768;14.984;2022-08-20T07:43:23;21.40;1.00
29093;DHT22;16167;48.768;14.984;2022-08-20T07:45:53;21.40;1.00
29093;DHT22;16167;48.768;14.984;2022-08-20T07:48:24;21.30;1.00
29093;DHT22;16167;48.768;14.984;2022-08-20T07:50:59;21.30;1.00
29093;DHT22;16167;48.768;14.984;2022-08-20T07:53:31;21.30;1.00
29093;DHT22;16167;48.768;14.984;2022-08-20T07:56:03;21.30;1.00
29093;DHT22;16167;48.768;14.984;2022-08-20T07:58:33;21.20;1.00
29093;DHT22;16167;48.768;14.984;2022-08-20T08:01:03;21.20;1.00
29093;DHT22;16167;48.768;14.984;2022-08-20T08:03:32;21.20;1.00
29093;DHT22;16167;48.768;14.984;2022-08-20T08:06:15;21.10;1.00
29093;DHT22;16167;48.768;14.984;2022-08-20T08:08:59;21.10;1.00
29093;DHT22;16167;48.768;14.984;2022-08-20T08:11:29;21.00;1.00
29093;DHT22;16167;48.768;14.984;2022-08-20T08:13:57;21.10;1.00
29093;DHT22;16167;48.768;14.984;2022-08-20T08:16:27;21.10;1.00
29093;DHT22;16167;48.768;14.984;2022-08-20T08:18:56;21.00;1.00
29093;DHT22;16167;48.768;14.984;2022-08-20T08:21:27;21.00;1.00
29093;DHT22;16167;48.768;14.984;2022-08-20T08:23:57;20.80;1.00
29093;DHT22;16167;48.768;14.984;2022-08-20T08:26:25;20.70;1.00
29093;DHT22;16167;48.768;14.984;2022-08-20T08:28:54;20.70;1.00
29093;DHT22;16167;48.768;14.984;2022-08-20T08:31:23;20.80;1.00
29093;DHT22;16167;48.768;14.984;2022-08-20T08:33:52;20.80;1.00
29093;DHT22;16167;48.768;14.984;2022-08-20T08:36:21;20.80;1.00
29093;DHT22;16167;48.768;14.984;2022-08-20T08:38:49;20.80;1.00
29093;DHT22;16167;48.768;14.984;2022-08-20T08:41:20;20.80;1.00
29093;DHT22;16167;48.768;14.984;2022-08-20T08:43:52;20.80;1.00
29093;DHT22;16167;48.768;14.984;2022-08-20T08:46:24;20.80;1.00
29093;DHT22;16167;48.768;14.984;2022-08-20T08:48:56;20.90;1.00
29093;DHT22;16167;48.768;14.984;2022-08-20T08:51:31;20.90;1.00
29093;DHT22;16167;48.768;14.984;2022-08-20T08:54:01;20.80;1.00
29093;DHT22;16167;48.768;14.984;2022-08-20T08:56:34;20.80;1.00
29093;DHT22;16167;48.768;14.984;2022-08-20T08:59:05;20.70;1.00
29093;DHT22;16167;48.768;14.984;2022-08-20T09:01:39;20.60;1.00
29093;DHT22;16167;48.768;14.984;2022-08-20T09:04:23;20.60;1.00
29093;DHT22;16167;48.768;14.984;2022-08-20T09:06:54;20.50;1.00
29093;DHT22;16167;48.768;14.984;2022-08-20T09:09:26;20.50;1.00
29093;DHT22;16167;48.768;14.984;2022-08-20T09:12:02;20.50;1.00
29093;DHT22;16167;48.768;14.984;2022-08-20T09:14:31;20.40;1.00
29093;DHT22;16167;48.768;14.984;2022-08-20T09:16:59;20.40;1.00
29093;DHT22;16167;48.768;14.984;2022-08-20T09:19:27;20.50;1.00
29093;DHT22;16167;48.768;14.984;2022-08-20T09:21:55;20.50;1.00
29093;DHT22;16167;48.768;14.984;2022-08-20T09:24:24;20.50;1.00
29093;DHT22;16167;48.768;14.984;2022-08-20T09:26:52;20.50;1.00
29093;DHT22;16167;48.768;14.984;2022-08-20T09:29:21;20.50;1.00
29093;DHT22;16167;48.768;14.984;2022-08-20T09:31:49;20.50;1.00
29093;DHT22;16167;48.768;14.984;2022-08-20T09:34:18;20.50;1.00
29093;DHT22;16167;48.768;14.984;2022-08-20T09:36:46;20.50;1.00
29093;DHT22;16167;48.768;14.984;2022-08-20T09:39:14;20.60;1.00
29093;DHT22;16167;48.768;14.984;2022-08-20T09:41:42;20.70;1.00
29093;DHT22;16167;48.768;14.984;2022-08-20T09:44:10;20.80;1.00
29093;DHT22;16167;48.768;14.984;2022-08-20T09:46:39;20.80;1.00
29093;DHT22;16167;48.768;14.984;2022-08-20T09:49:07;20.80;1.00
29093;DHT22;16167;48.768;14.984;2022-08-20T09:51:36;20.70;1.00
29093;DHT22;16167;48.768;14.984;2022-08-20T09:54:05;20.70;1.00
29093;DHT22;16167;48.768;14.984;2022-08-20T09:56:33;20.70;1.00
29093;DHT22;16167;48.768;14.984;2022-08-20T09:59:02;20.70;1.00
29093;DHT22;16167;48.768;14.984;2022-08-20T10:01:31;20.70;1.00
29093;DHT22;16167;48.768;14.984;2022-08-20T10:04:01;20.70;1.00
29093;DHT22;16167;48.768;14.984;2022-08-20T10:06:29;20.70;1.00
29093;DHT22;16167;48.768;14.984;2022-08-20T10:09:03;20.70;1.00
29093;DHT22;16167;48.768;14.984;2022-08-20T10:11:31;20.70;1.00
29093;DHT22;16167;48.768;14.984;2022-08-20T10:13:59;20.60;1.00
29093;DHT22;16167;48.768;14.984;2022-08-20T10:16:28;20.60;1.00
29093;DHT22;16167;48.768;14.984;2022-08-20T10:18:56;20.60;1.00
29093;DHT22;16167;48.768;14.984;2022-08-20T10:21:25;20.60;1.00
29093;DHT22;16167;48.768;14.984;2022-08-20T10:23:53;20.60;1.00
29093;DHT22;16167;48.768;14.984;2022-08-20T10:26:21;20.50;1.00
29093;DHT22;16167;48.768;14.984;2022-08-20T10:28:50;20.50;1.00
29093;DHT22;16167;48.768;14.984;2022-08-20T10:31:19;20.50;1.00
29093;DHT22;16167;48.768;14.984;2022-08-20T10:33:47;20.40;1.00
29093;DHT22;16167;48.768;14.984;2022-08-20T10:36:16;20.40;1.00
29093;DHT22;16167;48.768;14.984;2022-08-20T10:38:45;20.50;1.00
29093;DHT22;16167;48.768;14.984;2022-08-20T10:41:14;20.50;1.00
29093;DHT22;16167;48.768;14.984;2022-08-20T10:43:43;20.60;1.00
29093;DHT22;16167;48.768;14.984;2022-08-20T10:46:11;20.60;1.00
29093;DHT22;16167;48.768;14.984;2022-08-20T10:48:39;20.60;1.00
29093;DHT22;16167;48.768;14.984;2022-08-20T10:51:07;20.60;1.00
29093;DHT22;16167;48.768;14.984;2022-08-20T10:53:35;20.60;1.00
29093;DHT22;16167;48.768;14.984;2022-08-20T10:56:07;20.60;1.00
29093;DHT22;16167;48.768;14.984;2022-08-20T10:58:41;20.50;1.00
29093;DHT22;16167;48.768;14.984;2022-08-20T11:01:10;20.50;1.00
29093;DHT22;16167;48.768;14.984;2022-08-20T11:03:57;20.40;1.00
29093;DHT22;16167;48.768;14.984;2022-08-20T11:06:25;20.40;1.00
29093;DHT22;16167;48.768;14.984;2022-08-20T11:08:53;20.30;1.00
29093;DHT22;16167;48.768;14.984;2022-08-20T11:11:24;20.30;1.00
29093;DHT22;16167;48.768;14.984;2022-08-20T11:13:52;20.30;1.00
29093;DHT22;16167;48.768;14.984;2022-08-20T11:16:20;20.30;1.00
29093;DHT22;16167;48.768;14.984;2022-08-20T11:18:48;20.20;1.00
29093;DHT22;16167;48.768;14.984;2022-08-20T11:21:16;20.20;1.00
29093;DHT22;16167;48.768;14.984;2022-08-20T11:23:44;20.20;1.00
29093;DHT22;16167;48.768;14.984;2022-08-20T11:26:18;20.20;1.00
29093;DHT22;16167;48.768;14.984;2022-08-20T11:28:48;20.10;1.00
29093;DHT22;16167;48.768;14.984;2022-08-20T11:31:16;20.00;1.00
29093;DHT22;16167;48.768;14.984;2022-08-20T11:33:44;20.00;1.00
29093;DHT22;16167;48.768;14.984;2022-08-20T11:36:13;20.00;1.00
29093;DHT22;16167;48.768;14.984;2022-08-20T11:38:41;19.90;1.00
29093;DHT22;16167;48.768;14.984;2022-08-20T11:41:09;19.80;1.00
29093;DHT22;16167;48.768;14.984;2022-08-20T11:43:37;19.70;1.00
29093;DHT22;16167;48.768;14.984;2022-08-20T11:46:07;19.70;1.00
29093;DHT22;16167;48.768;14.984;2022-08-20T11:48:34;19.60;1.00
29093;DHT22;16167;48.768;14.984;2022-08-20T11:51:03;19.50;1.00
29093;DHT22;16167;48.768;14.984;2022-08-20T11:53:31;19.40;1.00
29093;DHT22;16167;48.768;14.984;2022-08-20T11:56:01;19.30;1.00
29093;DHT22;16167;48.768;14.984;2022-08-20T11:58:29;19.30;1.00
29093;DHT22;16167;48.768;14.984;2022-08-20T12:00:58;19.30;1.00
29093;DHT22;16167;48.768;14.984;2022-08-20T12:03:27;19.20;1.00
29093;DHT22;16167;48.768;14.984;2022-08-20T12:05:56;19.20;1.00
29093;DHT22;16167;48.768;14.984;2022-08-20T12:08:24;19.10;1.00
29093;DHT22;16167;48.768;14.984;2022-08-20T12:10:55;19.10;1.00
29093;DHT22;16167;48.768;14.984;2022-08-20T12:13:24;19.00;1.00
29093;DHT22;16167;48.768;14.984;2022-08-20T12:16:12;19.00;1.00
29093;DHT22;16167;48.768;14.984;2022-08-20T12:18:42;18.90;1.00
29093;DHT22;16167;48.768;14.984;2022-08-20T12:21:10;18.90;1.00
29093;DHT22;16167;48.768;14.984;2022-08-20T12:23:38;18.90;1.00
29093;DHT22;16167;48.768;14.984;2022-08-20T12:26:06;18.90;1.00
29093;DHT22;16167;48.768;14.984;2022-08-20T12:28:34;18.80;1.00
29093;DHT22;16167;48.768;14.984;2022-08-20T12:31:03;18.80;1.00
29093;DHT22;16167;48.768;14.984;2022-08-20T12:33:31;18.80;1.00
29093;DHT22;16167;48.768;14.984;2022-08-20T12:36:00;18.70;1.00
29093;DHT22;16167;48.768;14.984;2022-08-20T12:38:28;18.70;1.00
29093;DHT22;16167;48.768;14.984;2022-08-20T12:40:56;18.70;1.00
29093;DHT22;16167;48.768;14.984;2022-08-20T12:43:24;18.70;1.00
29093;DHT22;16167;48.768;14.984;2022-08-20T12:45:53;18.60;1.00
29093;DHT22;16167;48.768;14.984;2022-08-20T12:48:21;18.60;1.00
29093;DHT22;16167;48.768;14.984;2022-08-20T12:50:49;18.60;6.40
29093;DHT22;16167;48.768;14.984;2022-08-20T12:53:19;18.60;4.60
29093;DHT22;16167;48.768;14.984;2022-08-20T12:55:47;18.60;1.00
29093;DHT22;16167;48.768;14.984;2022-08-20T12:58:16;18.60;2.70
29093;DHT22;16167;48.768;14.984;2022-08-20T13:00:45;18.60;1.00
29093;DHT22;16167;48.768;14.984;2022-08-20T13:03:17;18.50;1.00
29093;DHT22;16167;48.768;14.984;2022-08-20T13:05:45;18.50;1.00
29093;DHT22;16167;48.768;14.984;2022-08-20T13:08:13;18.50;1.00
29093;DHT22;16167;48.768;14.984;2022-08-20T13:10:45;18.50;1.00
29093;DHT22;16167;48.768;14.984;2022-08-20T13:13:14;18.50;5.20
29093;DHT22;16167;48.768;14.984;2022-08-20T13:15:48;18.60;7.90
29093;DHT22;16167;48.768;14.984;2022-08-20T13:18:18;18.60;12.50
29093;DHT22;16167;48.768;14.984;2022-08-20T13:20:46;18.60;12.00
29093;DHT22;16167;48.768;14.984;2022-08-20T13:23:15;18.60;1.70
29093;DHT22;16167;48.768;14.984;2022-08-20T13:25:44;18.60;11.10
29093;DHT22;16167;48.768;14.984;2022-08-20T13:28:13;18.50;5.20
29093;DHT22;16167;48.768;14.984;2022-08-20T13:30:41;18.60;8.00
29093;DHT22;16167;48.768;14.984;2022-08-20T13:33:09;18.60;10.80
29093;DHT22;16167;48.768;14.984;2022-08-20T13:35:37;18.60;12.10
29093;DHT22;16167;48.768;14.984;2022-08-20T13:38:05;18.60;8.90
29093;DHT22;16167;48.768;14.984;2022-08-20T13:40:33;18.60;9.70
29093;DHT22;16167;48.768;14.984;2022-08-20T13:43:03;18.60;17.00
29093;DHT22;16167;48.768;14.984;2022-08-20T13:45:37;18.60;12.90
29093;DHT22;16167;48.768;14.984;2022-08-20T13:48:06;18.70;5.60
29093;DHT22;16167;48.768;14.984;2022-08-20T13:50:40;18.80;10.30
29093;DHT22;16167;48.768;14.984;2022-08-20T13:53:13;18.80;5.20
29093;DHT22;16167;48.768;14.984;2022-08-20T13:55:41;18.70;9.80
29093;DHT22;16167;48.768;14.984;2022-08-20T13:58:11;18.80;3.80
29093;DHT22;16167;48.768;14.984;2022-08-20T14:00:40;18.70;6.20
29093;DHT22;16167;48.768;14.984;2022-08-20T14:03:08;18.70;13.40
29093;DHT22;16167;48.768;14.984;2022-08-20T14:05:37;18.70;10.10
29093;DHT22;16167;48.768;14.984;2022-08-20T14:08:07;18.70;9.50
29093;DHT22;16167;48.768;14.984;2022-08-20T14:10:35;18.80;10.70
29093;DHT22;16167;48.768;14.984;2022-08-20T14:13:04;18.70;7.60
29093;DHT22;16167;48.768;14.984;2022-08-20T14:15:36;18.60;6.30
29093;DHT22;16167;48.768;14.984;2022-08-20T14:18:05;18.50;6.50
29093;DHT22;16167;48.768;14.984;2022-08-20T14:20:33;18.50;8.60
29093;DHT22;16167;48.768;14.984;2022-08-20T14:23:04;18.50;9.30
29093;DHT22;16167;48.768;14.984;2022-08-20T14:25:33;18.50;8.20
29093;DHT22;16167;48.768;14.984;2022-08-20T14:28:08;18.50;8.10
29093;DHT22;16167;48.768;14.984;2022-08-20T14:30:39;18.50;12.40
29093;DHT22;16167;48.768;14.984;2022-08-20T14:33:07;18.50;9.40
29093;DHT22;16167;48.768;14.984;2022-08-20T14:35:36;18.50;7.70
29093;DHT22;16167;48.768;14.984;2022-08-20T14:38:05;18.40;8.80
29093;DHT22;16167;48.768;14.984;2022-08-20T14:40:34;18.40;6.90
29093;DHT22;16167;48.768;14.984;2022-08-20T14:43:02;18.40;8.30
29093;DHT22;16167;48.768;14.984;2022-08-20T14:45:30;18.40;11.80
29093;DHT22;16167;48.768;14.984;2022-08-20T14:48:00;18.40;18.80
29093;DHT22;16167;48.768;14.984;2022-08-20T14:50:29;18.30;9.90
29093;DHT22;16167;48.768;14.984;2022-08-20T14:52:57;18.30;10.00
29093;DHT22;16167;48.768;14.984;2022-08-20T14:55:31;18.20;12.00
29093;DHT22;16167;48.768;14.984;2022-08-20T14:57:59;18.20;15.40
29093;DHT22;16167;48.768;14.984;2022-08-20T15:00:29;18.20;19.10
29093;DHT22;16167;48.768;14.984;2022-08-20T15:03:00;18.10;15.20
29093;DHT22;16167;48.768;14.984;2022-08-20T15:05:29;18.10;15.30
29093;DHT22;16167;48.768;14.984;2022-08-20T15:07:57;18.10;23.30
29093;DHT22;16167;48.768;14.984;2022-08-20T15:10:28;18.00;11.70
29093;DHT22;16167;48.768;14.984;2022-08-20T15:12:56;18.00;14.60
29093;DHT22;16167;48.768;14.984;2022-08-20T15:15:25;18.00;19.40
29093;DHT22;16167;48.768;14.984;2022-08-20T15:17:55;17.90;20.80
29093;DHT22;16167;48.768;14.984;2022-08-20T15:20:28;17.90;23.80
29093;DHT22;16167;48.768;14.984;2022-08-20T15:22:57;17.90;29.20
29093;DHT22;16167;48.768;14.984;2022-08-20T15:25:32;17.80;29.50
29093;DHT22;16167;48.768;14.984;2022-08-20T15:28:04;17.80;28.20
29093;DHT22;16167;48.768;14.984;2022-08-20T15:30:34;17.80;33.40
29093;DHT22;16167;48.768;14.984;2022-08-20T15:33:03;17.80;35.70
29093;DHT22;16167;48.768;14.984;2022-08-20T15:35:33;17.80;32.50
29093;DHT22;16167;48.768;14.984;2022-08-20T15:38:01;17.70;32.60
29093;DHT22;16167;48.768;14.984;2022-08-20T15:40:31;17.70;30.00
29093;DHT22;16167;48.768;14.984;2022-08-20T15:43:01;17.70;28.90
29093;DHT22;16167;48.768;14.984;2022-08-20T15:45:29;17.70;31.70
29093;DHT22;16167;48.768;14.984;2022-08-20T15:48:01;17.60;32.60